METAR AND TAF INFORMATION
METAR FOR WADD
ADDS - METARS form results

(1853 UTC 24 September 2020)
Data provider http://aviationweather.gov/metar/data/
 
METAR text: WADD 241830Z VRB01KT 9999 SCT016 26/26 Q1011 NOSIG
Conditions at: WADD (BALI INTL , ID) observed 1830 UTC 24 September 2020
Temperature: 26.0°C (79°F)
Dewpoint: 26.0°C (79°F) [RH = 100%]
Pressure (altimeter): 29.85 inches Hg (1011.0 mb)
Winds: variable direction winds at 1 MPH (1 knots; 0.5 m/s)
Visibility: 6 or more miles (10+ km)
Ceiling: at least 12,000 feet AGL
Clouds: scattered clouds at 1600 feet AGL
Weather: no significant weather observed at this time

METAR text: WADD 241800Z VRB02KT 9999 SCT015 26/26 Q1011 NOSIG
Conditions at: WADD (BALI INTL , ID) observed 1800 UTC 24 September 2020
Temperature: 26.0°C (79°F)
Dewpoint: 26.0°C (79°F) [RH = 100%]
Pressure (altimeter): 29.85 inches Hg (1011.0 mb)
Winds: variable direction winds at 2 MPH (2 knots; 1.0 m/s)
Visibility: 6 or more miles (10+ km)
Ceiling: at least 12,000 feet AGL
Clouds: scattered clouds at 1500 feet AGL
Weather: no significant weather observed at this time

Forecast for: WADD (BALI INTL , ID)
Text: TAF WADD 241700Z 2418/2518 VRB05KT 9999 SCT016
Forecast period: 1800 UTC 24 September 2020 to 0000 UTC 25 September 2020
Forecast type: FROM: standard forecast or significant change
Winds: variable direction winds at 6 MPH (5 knots; 2.6 m/s)
Visibility: 6 or more miles (10+ km)
Ceiling: at least 12,000 feet AGL
Clouds: scattered clouds at 1600 feet AGL
Weather: no significant weather forecast for this period
Text: BECMG 2500/2502 13010KT
Forecast period: 0000 to 1800 UTC 25 September 2020
Forecast type: BECOMING: Conditions expected to become as follows by 0200 UTC 25 September 2020
Winds: from the SE (130 degrees) at 12 MPH (10 knots; 5.1 m/s)
Visibility: 6 or more miles (10+ km)
Ceiling: at least 12,000 feet AGL
Clouds: scattered clouds at 1600 feet AGL
Weather: no significant weather forecast for this period

 AIRPORT MAP

 RUNWAY INFORMATION

 AIRPORT FREQUENCIES
Type APP Name DIRECTOR Frequency 119.7 MHZ
Type ATIS Name ATIS Frequency 126.2 MHZ
Type GND Name NGURAH GND Frequency 118.8 MHZ
Type INFO Name INFO Frequency 8.88 MHZ
Type TMA Name RADAR Frequency 119.3 MHZ
Type TWR Name NGURAH TWR Frequency 118.1 MHZ

 AIRPORT NEAR NAVIGATION AIDS
Type VOR-DME Name Bali Frequency 116200 KHZ
Type NDB Name Bali Frequency 230 KHZ



2018 Air Astana Virtual Airline